createdAt,value
2023-03-21T00:01:30.481Z,99.90
2023-03-21T00:03:57.772Z,99.90
2023-03-21T00:06:25.185Z,99.90
2023-03-21T00:08:52.419Z,99.90
2023-03-21T00:11:19.617Z,99.90
2023-03-21T00:13:46.821Z,99.90
2023-03-21T00:16:18.973Z,99.90
2023-03-21T00:18:54.867Z,99.90
2023-03-21T00:24:15.676Z,99.90
2023-03-21T00:26:42.918Z,99.90
2023-03-21T00:29:10.304Z,99.90
2023-03-21T00:31:37.421Z,99.90
2023-03-21T00:34:04.753Z,99.90
2023-03-21T00:36:32.280Z,99.90
2023-03-21T00:39:01.062Z,99.90
2023-03-21T00:41:41.423Z,99.90
2023-03-21T00:44:12.111Z,99.90
2023-03-21T00:46:47.321Z,99.90
2023-03-21T00:49:20.973Z,99.90
2023-03-21T00:51:51.899Z,99.90
2023-03-21T00:54:19.780Z,99.90
2023-03-21T00:56:46.971Z,99.90
2023-03-21T00:59:14.169Z,99.90
2023-03-21T01:01:41.409Z,99.90
2023-03-21T01:04:13.786Z,99.90
2023-03-21T01:06:45.275Z,99.90
2023-03-21T01:09:18.007Z,99.90
2023-03-21T01:11:45.845Z,99.90
2023-03-21T01:14:22.350Z,99.90
2023-03-21T01:16:53.097Z,99.90
2023-03-21T01:19:35.237Z,99.90
2023-03-21T01:22:08.926Z,99.90
2023-03-21T01:24:40.447Z,99.90
2023-03-21T01:27:14.060Z,99.90
2023-03-21T01:29:41.143Z,99.90
2023-03-21T01:32:08.361Z,99.90
2023-03-21T01:34:36.511Z,99.90
2023-03-21T01:37:04.031Z,1.00
2023-03-21T01:39:33.937Z,1.00
2023-03-21T01:42:01.241Z,1.00
2023-03-21T01:44:29.199Z,1.00
2023-03-21T01:47:09.780Z,1.00
2023-03-21T01:49:48.084Z,1.00
2023-03-21T01:52:35.438Z,1.00
2023-03-21T01:55:07.572Z,1.00
2023-03-21T01:57:54.898Z,1.00
2023-03-21T02:00:29.769Z,1.00
2023-03-21T02:03:11.320Z,1.00
2023-03-21T02:05:55.090Z,1.00
2023-03-21T02:08:30.570Z,1.00
2023-03-21T02:11:05.938Z,1.00
2023-03-21T02:13:33.095Z,1.00
2023-03-21T02:16:06.869Z,1.00
2023-03-21T02:18:40.237Z,1.00
2023-03-21T02:21:22.294Z,1.00
2023-03-21T02:24:12.670Z,1.00
2023-03-21T02:27:04.007Z,1.00
2023-03-21T02:29:56.069Z,1.00
2023-03-21T02:32:38.395Z,1.00
2023-03-21T02:35:21.359Z,1.00
2023-03-21T02:38:11.716Z,1.00
2023-03-21T02:41:00.404Z,1.00
2023-03-21T02:43:53.363Z,1.00
2023-03-21T02:46:40.190Z,1.00
2023-03-21T02:49:17.313Z,1.00
2023-03-21T02:51:46.889Z,1.00
2023-03-21T02:54:38.404Z,1.00
2023-03-21T02:57:06.346Z,1.00
2023-03-21T02:59:39.394Z,1.00
2023-03-21T03:02:08.918Z,1.00
2023-03-21T03:04:36.201Z,99.90
2023-03-21T03:07:29.522Z,99.90
2023-03-21T03:10:12.857Z,99.90
2023-03-21T03:12:50.845Z,99.90
2023-03-21T03:15:51.793Z,99.90
2023-03-21T03:18:46.533Z,99.90
2023-03-21T03:21:28.948Z,99.90
2023-03-21T03:24:36.973Z,99.90
2023-03-21T03:27:15.917Z,99.90
2023-03-21T03:29:47.359Z,99.90
2023-03-21T03:32:27.324Z,99.90
2023-03-21T03:34:58.275Z,99.90
2023-03-21T03:37:29.546Z,99.90
2023-03-21T03:40:17.080Z,99.90
2023-03-21T03:42:51.321Z,99.90
2023-03-21T03:45:20.469Z,99.90
2023-03-21T03:48:15.933Z,99.90
2023-03-21T03:50:51.647Z,99.90
2023-03-21T03:53:27.473Z,99.90
2023-03-21T03:55:56.757Z,99.90
2023-03-21T03:58:39.478Z,99.90
2023-03-21T04:01:12.638Z,99.90
2023-03-21T04:03:49.814Z,99.90
2023-03-21T04:06:19.948Z,99.90
2023-03-21T04:08:47.082Z,99.90
2023-03-21T04:11:16.500Z,99.90
2023-03-21T04:13:43.673Z,99.90
2023-03-21T04:16:13.187Z,99.90
2023-03-21T04:18:42.279Z,99.90
2023-03-21T04:21:11.258Z,99.90
2023-03-21T04:23:38.688Z,99.90
2023-03-21T04:26:06.686Z,99.90
2023-03-21T04:28:36.458Z,99.90
2023-03-21T04:31:16.155Z,99.90
2023-03-21T04:33:51.567Z,99.90
2023-03-21T04:36:30.941Z,99.90
2023-03-21T04:39:01.763Z,99.90
2023-03-21T04:41:29.333Z,99.90
2023-03-21T04:43:56.794Z,99.90
2023-03-21T04:46:24.234Z,99.90
2023-03-21T04:48:51.369Z,99.90
2023-03-21T04:51:18.630Z,99.90
2023-03-21T04:53:47.114Z,99.90
2023-03-21T04:56:14.301Z,1.00
2023-03-21T04:58:42.577Z,1.00
2023-03-21T05:01:09.817Z,1.00
2023-03-21T05:03:40.536Z,1.00
2023-03-21T05:06:09.411Z,1.00
2023-03-21T05:08:37.479Z,1.00
2023-03-21T05:11:05.484Z,1.00
2023-03-21T05:13:32.619Z,1.00
2023-03-21T05:15:59.739Z,1.00
2023-03-21T05:18:27.129Z,1.00
2023-03-21T05:20:54.752Z,1.00
2023-03-21T05:23:23.696Z,1.00
2023-03-21T05:25:51.555Z,1.00
2023-03-21T05:28:18.694Z,1.00
2023-03-21T05:30:46.937Z,1.00
2023-03-21T05:33:14.366Z,1.00
2023-03-21T05:35:41.514Z,1.00
2023-03-21T05:38:08.743Z,1.00
2023-03-21T05:40:35.918Z,1.00
2023-03-21T05:43:03.085Z,1.00
2023-03-21T05:45:30.265Z,1.00
2023-03-21T05:47:57.515Z,1.00
2023-03-21T05:50:24.800Z,1.00
2023-03-21T05:52:52.100Z,99.90
2023-03-21T05:55:19.483Z,99.90
2023-03-21T05:57:46.814Z,99.90
2023-03-21T06:00:15.073Z,99.90
2023-03-21T06:02:42.453Z,99.90
2023-03-21T06:05:09.861Z,99.90
2023-03-21T06:07:37.737Z,99.80
2023-03-21T06:10:07.043Z,96.50
2023-03-21T06:12:34.869Z,75.60
2023-03-21T06:15:02.579Z,40.10
2023-03-21T06:17:29.671Z,12.20
2023-03-21T06:19:56.958Z,1.00
2023-03-21T06:22:24.083Z,1.00
2023-03-21T06:24:51.258Z,1.00
2023-03-21T06:27:18.442Z,1.00
2023-03-21T06:29:46.594Z,1.00
2023-03-21T06:32:13.827Z,1.00
2023-03-21T06:34:41.044Z,1.00
2023-03-21T06:37:08.372Z,99.90
2023-03-21T06:39:35.798Z,99.90
2023-03-21T06:42:03.107Z,99.90
2023-03-21T06:44:30.449Z,99.90
2023-03-21T06:46:57.624Z,99.90
2023-03-21T06:49:27.016Z,99.90
2023-03-21T06:51:54.548Z,99.90
2023-03-21T06:54:21.770Z,99.90
2023-03-21T06:56:49.205Z,99.90
2023-03-21T06:59:16.563Z,99.90
2023-03-21T07:01:43.983Z,99.90
2023-03-21T07:04:11.449Z,99.90
2023-03-21T07:06:38.869Z,99.90
2023-03-21T07:09:06.683Z,99.90
2023-03-21T07:11:35.730Z,99.90
2023-03-21T07:14:02.969Z,99.90
2023-03-21T07:16:30.168Z,99.90
2023-03-21T07:18:57.475Z,99.90
2023-03-21T07:21:24.658Z,99.90
2023-03-21T07:23:52.285Z,99.90
2023-03-21T07:26:19.505Z,99.90
2023-03-21T07:28:46.725Z,99.90
2023-03-21T07:31:16.791Z,99.90
2023-03-21T07:33:44.246Z,99.90
2023-03-21T07:36:15.543Z,99.90
2023-03-21T07:38:44.380Z,99.90
2023-03-21T07:41:11.965Z,99.90
2023-03-21T07:43:39.550Z,99.90
2023-03-21T07:46:07.218Z,99.90
2023-03-21T07:48:34.824Z,99.90
2023-03-21T07:51:02.590Z,99.90
2023-03-21T07:53:29.769Z,99.90
2023-03-21T07:55:57.107Z,99.90
2023-03-21T07:58:25.288Z,99.90
2023-03-21T08:00:53.177Z,99.90
2023-03-21T08:03:20.396Z,99.90
2023-03-21T08:05:47.677Z,99.90
2023-03-21T08:08:14.978Z,99.90
2023-03-21T08:10:44.617Z,99.90
2023-03-21T08:13:13.876Z,99.90
2023-03-21T08:15:42.609Z,99.90
2023-03-21T08:18:11.393Z,99.90
2023-03-21T08:20:39.144Z,99.90
2023-03-21T08:23:06.310Z,99.90
2023-03-21T08:25:33.534Z,99.90
2023-03-21T08:28:01.021Z,99.90
2023-03-21T08:30:29.631Z,99.90
2023-03-21T08:33:01.764Z,99.90
2023-03-21T08:35:30.673Z,99.90
2023-03-21T08:37:58.262Z,99.90
2023-03-21T08:40:26.117Z,99.90
2023-03-21T08:42:53.355Z,99.90
2023-03-21T08:45:20.731Z,98.80
2023-03-21T08:47:47.891Z,99.90
2023-03-21T08:50:17.669Z,98.10
2023-03-21T08:52:45.509Z,95.20
2023-03-21T08:55:13.395Z,95.50
2023-03-21T08:57:41.245Z,93.90
2023-03-21T09:00:13.353Z,96.60
2023-03-21T09:02:44.497Z,95.10
2023-03-21T09:05:12.452Z,93.70
2023-03-21T09:07:40.966Z,95.90
2023-03-21T09:10:21.105Z,93.30
2023-03-21T09:12:51.272Z,92.20
2023-03-21T09:15:22.130Z,87.00
2023-03-21T09:17:52.934Z,85.00
2023-03-21T09:20:26.582Z,72.60
2023-03-21T09:22:54.628Z,75.10
2023-03-21T09:25:22.195Z,77.10
2023-03-21T09:27:49.630Z,59.20
2023-03-21T09:30:19.603Z,46.70
2023-03-21T09:32:49.131Z,34.00
2023-03-21T09:35:18.926Z,24.70
2023-03-21T09:37:50.183Z,23.50
2023-03-21T09:41:04.552Z,25.60
2023-03-21T09:43:49.808Z,32.90
2023-03-21T09:46:49.627Z,21.30
2023-03-21T09:49:38.791Z,29.10
2023-03-21T09:52:18.363Z,21.60
2023-03-21T09:54:45.970Z,26.70
2023-03-21T09:57:38.336Z,27.30
2023-03-21T10:00:14.645Z,31.50
2023-03-21T10:02:48.073Z,32.50
2023-03-21T10:05:27.340Z,23.80
2023-03-21T10:08:18.371Z,24.10
2023-03-21T10:10:50.579Z,13.00
2023-03-21T10:13:26.198Z,17.10
2023-03-21T10:16:02.628Z,8.50
2023-03-21T10:18:31.752Z,13.00
2023-03-21T10:20:59.474Z,14.60
2023-03-21T10:23:30.055Z,11.40
2023-03-21T10:26:05.559Z,1.00
2023-03-21T10:28:51.967Z,1.00
2023-03-21T10:31:25.575Z,1.00
2023-03-21T10:33:55.647Z,1.00
2023-03-21T10:36:26.198Z,1.00
2023-03-21T10:39:01.832Z,1.00
2023-03-21T10:41:29.014Z,1.00
2023-03-21T10:44:33.662Z,1.00
2023-03-21T10:47:06.491Z,1.00
2023-03-21T10:49:40.560Z,1.00
2023-03-21T10:52:21.589Z,1.00
2023-03-21T10:54:50.088Z,1.00
2023-03-21T10:57:22.721Z,1.00
2023-03-21T10:59:56.942Z,1.00
2023-03-21T11:02:33.630Z,1.00
2023-03-21T11:05:23.243Z,1.00
2023-03-21T11:08:03.174Z,1.00
2023-03-21T11:10:38.376Z,1.00
2023-03-21T11:13:18.981Z,1.00
2023-03-21T11:15:56.891Z,1.00
2023-03-21T11:18:26.960Z,1.00
2023-03-21T11:21:05.962Z,1.00
2023-03-21T11:23:39.015Z,1.00
2023-03-21T11:26:11.610Z,1.00
2023-03-21T11:28:45.056Z,1.00
2023-03-21T11:31:12.683Z,1.00
2023-03-21T11:33:51.135Z,1.00
2023-03-21T11:36:22.096Z,1.00
2023-03-21T11:38:58.159Z,1.00
2023-03-21T11:41:35.182Z,1.00
2023-03-21T11:44:03.250Z,1.00
2023-03-21T11:46:32.212Z,1.00
2023-03-21T11:49:01.601Z,1.00
2023-03-21T11:51:44.704Z,1.00
2023-03-21T11:54:33.317Z,1.00
2023-03-21T11:57:04.033Z,1.00
2023-03-21T11:59:48.548Z,1.00
2023-03-21T12:02:30.848Z,1.00
2023-03-21T12:05:04.436Z,1.00
2023-03-21T12:07:34.285Z,1.00
2023-03-21T12:10:19.872Z,1.00
2023-03-21T12:13:18.745Z,1.00
2023-03-21T12:16:06.121Z,1.00
2023-03-21T12:18:51.298Z,1.00
2023-03-21T12:21:48.002Z,1.00
2023-03-21T12:24:46.040Z,1.00
2023-03-21T12:27:24.777Z,1.00
2023-03-21T12:30:23.986Z,1.00
2023-03-21T12:33:13.783Z,1.00
2023-03-21T12:36:01.759Z,1.00
2023-03-21T12:38:35.974Z,1.00
2023-03-21T12:41:34.863Z,1.00
2023-03-21T12:44:16.411Z,1.00
2023-03-21T12:46:55.243Z,1.00
2023-03-21T12:49:44.152Z,1.00
2023-03-21T12:52:22.231Z,1.00
2023-03-21T12:54:54.035Z,1.00
2023-03-21T12:57:47.731Z,1.00
2023-03-21T13:00:27.678Z,1.00
2023-03-21T13:03:12.698Z,1.00
2023-03-21T13:05:48.498Z,1.00
2023-03-21T13:08:31.551Z,1.00
2023-03-21T13:11:01.359Z,1.00
2023-03-21T13:13:41.819Z,1.00
2023-03-21T13:16:27.882Z,1.00
2023-03-21T13:19:17.526Z,1.00
2023-03-21T13:21:47.324Z,1.00
2023-03-21T13:24:25.787Z,1.00
2023-03-21T13:27:13.064Z,1.00
2023-03-21T13:29:47.684Z,1.00
2023-03-21T13:32:26.789Z,1.00
2023-03-21T13:35:15.865Z,1.00
2023-03-21T13:37:59.964Z,1.00
2023-03-21T13:40:43.003Z,1.00
2023-03-21T13:43:40.804Z,1.00
2023-03-21T13:46:11.894Z,1.00
2023-03-21T13:49:02.710Z,1.00
2023-03-21T13:51:29.750Z,1.00
2023-03-21T13:54:04.491Z,1.00
2023-03-21T13:56:50.614Z,1.00
2023-03-21T13:59:37.466Z,1.00
2023-03-21T14:02:20.317Z,1.00
2023-03-21T14:05:04.906Z,1.00
2023-03-21T14:07:43.236Z,1.00
2023-03-21T14:10:26.039Z,1.00
2023-03-21T14:12:54.191Z,1.00
2023-03-21T14:15:27.870Z,1.00
2023-03-21T14:18:06.390Z,1.00
2023-03-21T14:20:45.056Z,1.00
2023-03-21T14:23:16.603Z,1.00
2023-03-21T14:25:47.771Z,1.00
2023-03-21T14:28:33.043Z,1.00
2023-03-21T14:31:01.315Z,1.00
2023-03-21T14:33:44.368Z,1.00
2023-03-21T14:36:16.110Z,1.00
2023-03-21T14:38:43.729Z,1.00
2023-03-21T14:41:24.710Z,1.00
2023-03-21T14:44:22.507Z,1.00
2023-03-21T14:46:49.674Z,1.00
2023-03-21T14:49:25.300Z,1.00
2023-03-21T14:51:55.181Z,1.00
2023-03-21T14:54:23.372Z,1.00
2023-03-21T14:56:53.877Z,1.00
2023-03-21T14:59:26.088Z,1.00
2023-03-21T15:01:54.933Z,1.00
2023-03-21T15:04:22.300Z,1.00
2023-03-21T15:06:58.003Z,1.00
2023-03-21T15:09:31.102Z,1.00
2023-03-21T15:11:59.155Z,1.00
2023-03-21T15:14:33.096Z,1.00
2023-03-21T15:17:04.263Z,1.00
2023-03-21T15:19:37.724Z,1.00
2023-03-21T15:22:23.034Z,1.00
2023-03-21T15:24:54.399Z,1.00
2023-03-21T15:27:25.216Z,1.00
2023-03-21T15:29:57.144Z,1.00
2023-03-21T15:32:27.630Z,1.00
2023-03-21T15:34:56.946Z,1.00
2023-03-21T15:37:28.354Z,1.00
2023-03-21T15:40:14.518Z,1.00
2023-03-21T15:42:42.474Z,1.00
2023-03-21T15:45:30.491Z,1.00
2023-03-21T15:48:12.344Z,1.00
2023-03-21T15:50:42.869Z,1.00
2023-03-21T15:53:17.446Z,1.00
2023-03-21T15:55:50.124Z,1.00
2023-03-21T15:58:26.580Z,1.00
2023-03-21T16:00:56.222Z,1.00
2023-03-21T16:03:30.048Z,1.00
2023-03-21T16:06:25.829Z,1.00
2023-03-21T16:09:14.893Z,1.00
2023-03-21T16:11:44.544Z,1.00
2023-03-21T16:14:11.647Z,1.00
2023-03-21T16:16:39.380Z,1.00
2023-03-21T16:19:07.534Z,1.00
2023-03-21T16:21:35.623Z,1.00
2023-03-21T16:24:02.661Z,1.00
2023-03-21T16:26:38.948Z,1.00
2023-03-21T16:29:08.576Z,1.00
2023-03-21T16:31:37.440Z,1.00
2023-03-21T16:34:05.292Z,1.00
2023-03-21T16:36:36.795Z,1.00
2023-03-21T16:39:17.888Z,1.00
2023-03-21T16:41:45.520Z,1.00
2023-03-21T16:44:13.050Z,1.00
2023-03-21T16:46:40.898Z,1.00
2023-03-21T16:49:20.014Z,1.00
2023-03-21T16:51:47.734Z,1.00
2023-03-21T16:54:14.825Z,1.00
2023-03-21T16:56:51.797Z,1.00
2023-03-21T16:59:19.041Z,3.50
2023-03-21T17:01:48.007Z,8.30
2023-03-21T17:04:17.771Z,13.30
2023-03-21T17:06:49.699Z,18.90
2023-03-21T17:09:23.154Z,24.40
2023-03-21T17:11:50.467Z,30.80
2023-03-21T17:14:19.017Z,38.50
2023-03-21T17:16:46.373Z,48.20
2023-03-21T17:19:26.469Z,53.20
2023-03-21T17:21:55.472Z,57.50
2023-03-21T17:24:24.174Z,66.80
2023-03-21T17:26:51.366Z,74.90
2023-03-21T17:29:19.267Z,82.40
2023-03-21T17:31:51.034Z,88.70
2023-03-21T17:34:18.857Z,92.30
2023-03-21T17:36:47.993Z,95.40
2023-03-21T17:39:27.360Z,96.50
2023-03-21T17:41:56.193Z,98.80
2023-03-21T17:44:23.844Z,99.90
2023-03-21T17:46:52.242Z,99.90
2023-03-21T17:49:22.162Z,99.90
2023-03-21T17:51:53.019Z,99.90
2023-03-21T17:54:21.389Z,99.90
2023-03-21T17:56:49.506Z,99.90
2023-03-21T17:59:17.310Z,99.90
2023-03-21T18:01:45.501Z,99.90
2023-03-21T18:04:12.921Z,99.90
2023-03-21T18:06:40.905Z,99.90
2023-03-21T18:09:12.588Z,99.90
2023-03-21T18:11:41.816Z,99.90
2023-03-21T18:14:17.237Z,99.90
2023-03-21T18:16:46.760Z,99.90
2023-03-21T18:19:16.421Z,99.90
2023-03-21T18:21:45.800Z,99.90
2023-03-21T18:24:15.955Z,99.90
2023-03-21T18:26:43.934Z,99.90
2023-03-21T18:30:15.816Z,99.90
2023-03-21T18:32:08.057Z,99.90
2023-03-21T18:34:39.042Z,99.90
2023-03-21T18:37:08.781Z,99.90
2023-03-21T18:39:38.805Z,99.90
2023-03-21T18:42:07.687Z,99.90
2023-03-21T18:44:46.158Z,99.90
2023-03-21T18:47:15.435Z,99.90
2023-03-21T18:52:31.670Z,99.90
2023-03-21T18:54:59.830Z,99.90
2023-03-21T18:57:36.497Z,99.90
2023-03-21T19:00:15.271Z,99.90
2023-03-21T19:02:47.781Z,99.90
2023-03-21T19:05:23.297Z,99.90
2023-03-21T19:07:53.198Z,99.90
2023-03-21T19:10:26.235Z,99.90
2023-03-21T19:12:56.387Z,99.90
2023-03-21T19:15:26.798Z,99.90
2023-03-21T19:20:47.547Z,99.90
2023-03-21T19:23:17.753Z,99.90
2023-03-21T19:25:47.419Z,99.90
2023-03-21T19:28:15.123Z,99.90
2023-03-21T19:30:50.383Z,99.90
2023-03-21T19:33:20.737Z,99.90
2023-03-21T19:35:50.357Z,99.90
2023-03-21T19:38:18.540Z,99.90
2023-03-21T19:40:46.867Z,1.00
2023-03-21T19:43:33.224Z,1.00
2023-03-21T19:46:01.682Z,1.00
2023-03-21T19:48:30.349Z,1.00
2023-03-21T19:51:26.302Z,1.00
2023-03-21T19:53:46.352Z,1.00
2023-03-21T19:56:22.321Z,1.00
2023-03-21T19:58:53.383Z,1.00
2023-03-21T20:01:21.905Z,1.00
2023-03-21T20:03:51.365Z,1.00
2023-03-21T20:06:22.948Z,1.00
2023-03-21T20:11:43.199Z,1.00
2023-03-21T20:14:11.385Z,1.00
2023-03-21T20:16:43.260Z,1.00
2023-03-21T20:19:16.650Z,1.00
2023-03-21T20:21:52.250Z,1.00
2023-03-21T20:24:23.350Z,1.00
2023-03-21T20:26:54.299Z,1.00
2023-03-21T20:32:10.811Z,1.00
2023-03-21T20:34:41.020Z,1.00
2023-03-21T20:37:09.248Z,1.00
2023-03-21T20:39:41.567Z,1.00
2023-03-21T20:42:09.689Z,1.00
2023-03-21T20:44:58.761Z,1.00
2023-03-21T20:47:25.874Z,1.00
2023-03-21T20:49:55.263Z,13.10
2023-03-21T20:52:57.437Z,15.30
2023-03-21T20:55:17.631Z,15.20
2023-03-21T20:57:48.553Z,22.90
2023-03-21T21:00:17.962Z,29.60
2023-03-21T21:02:48.811Z,42.30
2023-03-21T21:05:25.763Z,51.20
2023-03-21T21:07:57.126Z,62.70
2023-03-21T21:10:25.825Z,71.50
2023-03-21T21:12:54.762Z,88.70
2023-03-21T21:15:23.738Z,95.20
2023-03-21T21:18:05.371Z,99.40
2023-03-21T21:20:36.850Z,99.90
2023-03-21T21:23:05.755Z,99.90
2023-03-21T21:25:34.249Z,99.90
2023-03-21T21:28:02.244Z,99.90
2023-03-21T21:30:30.157Z,99.90
2023-03-21T21:33:01.022Z,99.90
2023-03-21T21:35:28.531Z,99.90
2023-03-21T21:37:56.444Z,99.90
2023-03-21T21:40:23.658Z,99.90
2023-03-21T21:42:51.002Z,99.90
2023-03-21T21:45:19.127Z,99.90
2023-03-21T21:47:46.881Z,99.90
2023-03-21T21:50:14.553Z,99.90
2023-03-21T21:52:43.895Z,99.90
2023-03-21T21:55:11.142Z,96.00
2023-03-21T21:57:40.138Z,91.50
2023-03-21T22:00:13.455Z,89.30
2023-03-21T22:02:41.633Z,80.80
2023-03-21T22:05:09.590Z,69.20
2023-03-21T22:07:37.752Z,59.30
2023-03-21T22:10:06.133Z,57.80
2023-03-21T22:12:33.334Z,53.70
2023-03-21T22:15:00.655Z,43.20
2023-03-21T22:17:27.736Z,29.00
2023-03-21T22:20:05.218Z,18.10
2023-03-21T22:22:37.372Z,10.90
2023-03-21T22:25:06.921Z,7.90
2023-03-21T22:27:34.203Z,6.30
2023-03-21T22:30:05.111Z,5.70
2023-03-21T22:32:33.004Z,4.40
2023-03-21T22:35:02.707Z,2.50
2023-03-21T22:37:32.262Z,1.00
2023-03-21T22:39:59.464Z,1.00
2023-03-21T22:42:27.323Z,1.00
2023-03-21T22:44:54.456Z,1.00
2023-03-21T22:47:21.513Z,1.00
2023-03-21T22:49:48.618Z,1.00
2023-03-21T22:52:15.931Z,1.00
2023-03-21T22:54:43.071Z,1.00
2023-03-21T22:57:10.176Z,1.00
2023-03-21T22:59:37.282Z,1.00
2023-03-21T23:02:04.423Z,1.00
2023-03-21T23:04:31.645Z,1.00
2023-03-21T23:06:59.047Z,1.00
2023-03-21T23:09:27.556Z,1.00
2023-03-21T23:11:54.948Z,1.00
2023-03-21T23:14:22.842Z,1.00
2023-03-21T23:16:52.484Z,1.00
2023-03-21T23:19:21.421Z,1.00
2023-03-21T23:21:49.299Z,1.00
2023-03-21T23:24:16.404Z,1.00
2023-03-21T23:26:43.627Z,1.00
2023-03-21T23:29:12.125Z,1.00
2023-03-21T23:31:39.379Z,1.00
2023-03-21T23:34:07.020Z,1.00
2023-03-21T23:36:34.180Z,1.00
2023-03-21T23:39:01.306Z,1.00
2023-03-21T23:41:28.464Z,1.00
2023-03-21T23:43:55.830Z,1.00
2023-03-21T23:46:23.067Z,1.00
2023-03-21T23:48:50.162Z,1.00
2023-03-21T23:51:18.377Z,1.00
2023-03-21T23:53:46.457Z,1.00
2023-03-21T23:56:24.649Z,1.00
2023-03-21T23:58:52.124Z,1.00
